createdAt,value
2019-01-17T00:00:47.164Z,29.40
2019-01-17T00:06:27.125Z,26.00
2019-01-17T00:11:51.887Z,25.87
2019-01-17T00:17:13.958Z,17.43
2019-01-17T00:22:37.210Z,5.47
2019-01-17T00:27:48.686Z,7.83
2019-01-17T00:33:04.406Z,2.53
2019-01-17T00:38:22.357Z,2.83
2019-01-17T00:43:53.258Z,2.70
2019-01-17T00:49:18.628Z,8.17
2019-01-17T00:54:44.232Z,2.23
2019-01-17T01:00:01.578Z,4.67
2019-01-17T01:05:32.366Z,7.03
2019-01-17T01:10:53.196Z,4.43
2019-01-17T01:16:16.981Z,2.50
2019-01-17T01:21:37.187Z,6.10
2019-01-17T01:27:01.906Z,4.67
2019-01-17T01:32:11.556Z,4.27
2019-01-17T01:37:32.198Z,6.27
2019-01-17T01:42:53.224Z,16.97
2019-01-17T01:48:09.126Z,12.90
2019-01-17T01:53:11.607Z,10.60
2019-01-17T01:58:14.419Z,12.13
2019-01-17T02:03:18.663Z,7.50
2019-01-17T02:08:22.248Z,10.83
2019-01-17T02:13:25.116Z,5.43
2019-01-17T02:18:27.990Z,5.50
2019-01-17T02:23:30.772Z,6.47
2019-01-17T02:28:33.260Z,4.93
2019-01-17T02:33:35.760Z,6.43
2019-01-17T02:38:38.464Z,8.37
2019-01-17T02:43:40.842Z,8.23
2019-01-17T02:48:43.467Z,16.67
2019-01-17T02:53:46.508Z,4.73
2019-01-17T02:58:49.250Z,8.93
2019-01-17T03:03:51.468Z,2.43
2019-01-17T03:08:54.028Z,8.70
2019-01-17T03:13:56.831Z,10.50
2019-01-17T03:18:59.837Z,20.00
2019-01-17T03:24:02.336Z,10.30
2019-01-17T03:29:05.057Z,13.43
2019-01-17T03:34:07.626Z,13.37
2019-01-17T03:39:10.627Z,8.87
2019-01-17T03:44:13.007Z,16.97
2019-01-17T03:49:15.617Z,6.93
2019-01-17T03:54:17.999Z,8.83
2019-01-17T03:59:21.121Z,11.73
2019-01-17T04:04:23.813Z,6.13
2019-01-17T04:09:27.117Z,10.87
2019-01-17T04:14:29.790Z,7.80
2019-01-17T04:19:32.621Z,11.27
2019-01-17T04:24:35.006Z,5.20
2019-01-17T04:29:37.497Z,10.07
2019-01-17T04:34:39.597Z,4.43
2019-01-17T04:39:42.244Z,13.70
2019-01-17T04:44:44.684Z,10.63
2019-01-17T04:49:47.778Z,10.93
2019-01-17T04:54:50.456Z,20.10
2019-01-17T04:59:53.121Z,10.60
2019-01-17T05:04:55.559Z,17.30
2019-01-17T05:09:58.224Z,7.67
2019-01-17T05:15:01.201Z,27.67
2019-01-17T05:20:05.610Z,13.80
2019-01-17T05:25:12.802Z,31.37
2019-01-17T05:30:15.875Z,12.33
2019-01-17T05:35:18.651Z,15.67
2019-01-17T05:40:22.032Z,8.27
2019-01-17T05:45:24.617Z,23.33
2019-01-17T05:50:27.288Z,17.53
2019-01-17T05:55:29.511Z,18.67
2019-01-17T06:00:32.129Z,18.50
2019-01-17T06:05:34.901Z,14.30
2019-01-17T06:10:36.986Z,17.23
2019-01-17T06:15:40.805Z,21.63
2019-01-17T06:20:43.218Z,17.87
2019-01-17T06:25:45.278Z,18.80
2019-01-17T06:30:47.982Z,16.80
2019-01-17T06:35:50.673Z,13.90
2019-01-17T06:40:53.708Z,20.57
2019-01-17T06:45:56.564Z,21.17
2019-01-17T06:50:59.081Z,26.87
2019-01-17T06:56:02.134Z,26.70
2019-01-17T07:01:05.048Z,14.43
2019-01-17T07:06:07.490Z,19.70
2019-01-17T07:11:09.978Z,16.50
2019-01-17T07:16:12.782Z,18.83
2019-01-17T07:21:15.271Z,17.20
2019-01-17T07:26:17.654Z,16.10
2019-01-17T07:31:20.360Z,30.83
2019-01-17T07:36:23.255Z,24.67
2019-01-17T07:41:26.100Z,21.47
2019-01-17T07:46:28.961Z,8.70
2019-01-17T07:51:31.966Z,23.47
2019-01-17T07:56:34.701Z,23.43
2019-01-17T08:01:37.292Z,15.10
2019-01-17T08:06:40.260Z,13.60
2019-01-17T08:11:42.927Z,29.40
2019-01-17T08:16:45.195Z,25.67
2019-01-17T08:21:48.004Z,21.13
2019-01-17T08:26:50.620Z,23.87
2019-01-17T08:31:53.667Z,15.87
2019-01-17T08:36:56.467Z,16.87
2019-01-17T08:41:59.573Z,19.37
2019-01-17T08:47:02.388Z,18.80
2019-01-17T08:52:05.218Z,21.13
2019-01-17T08:57:08.328Z,19.00
2019-01-17T09:02:11.164Z,26.63
2019-01-17T09:07:14.177Z,20.00
2019-01-17T09:12:17.369Z,15.20
2019-01-17T09:17:20.178Z,14.57
2019-01-17T09:22:22.676Z,24.80
2019-01-17T09:27:25.510Z,22.77
2019-01-17T09:32:28.686Z,15.93
2019-01-17T09:37:31.184Z,17.57
2019-01-17T09:42:33.359Z,12.97
2019-01-17T09:47:36.567Z,23.27
2019-01-17T09:52:39.193Z,12.10
2019-01-17T09:57:41.898Z,17.93
2019-01-17T10:02:44.556Z,19.93
2019-01-17T10:07:47.181Z,15.47
2019-01-17T10:12:50.589Z,22.70
2019-01-17T10:18:21.224Z,23.60
2019-01-17T10:23:46.868Z,19.40
2019-01-17T10:29:15.981Z,19.73
2019-01-17T10:34:48.748Z,13.27
2019-01-17T10:40:38.998Z,7.17
2019-01-17T10:46:23.806Z,9.50
2019-01-17T10:51:43.656Z,4.97
2019-01-17T10:57:03.561Z,18.07
2019-01-17T11:02:56.884Z,17.27
2019-01-17T11:08:37.982Z,11.77
2019-01-17T11:14:07.976Z,9.93
2019-01-17T11:20:02.935Z,20.57
2019-01-17T11:25:40.336Z,8.03
2019-01-17T11:31:29.738Z,10.43
2019-01-17T11:37:26.375Z,6.60
2019-01-17T11:42:56.044Z,12.23
2019-01-17T11:48:27.716Z,9.50
2019-01-17T11:54:07.895Z,7.77
2019-01-17T11:59:18.378Z,19.03
2019-01-17T12:04:35.844Z,6.80
2019-01-17T12:09:38.612Z,15.90
2019-01-17T12:14:41.797Z,9.93
2019-01-17T12:19:44.534Z,5.17
2019-01-17T12:24:47.771Z,8.93
2019-01-17T12:29:50.345Z,13.30
2019-01-17T12:34:53.135Z,12.00
2019-01-17T12:39:55.526Z,10.40
2019-01-17T12:44:58.437Z,6.83
2019-01-17T12:50:01.639Z,10.43
2019-01-17T12:55:05.027Z,9.57
2019-01-17T13:00:11.083Z,15.87
2019-01-17T13:05:14.331Z,4.23
2019-01-17T13:10:17.256Z,8.77
2019-01-17T13:15:20.431Z,12.70
2019-01-17T13:20:23.337Z,4.80
2019-01-17T13:25:26.210Z,6.03
2019-01-17T13:30:28.509Z,7.20
2019-01-17T13:35:31.186Z,5.40
2019-01-17T13:40:34.042Z,8.27
2019-01-17T13:45:37.147Z,10.70
2019-01-17T13:50:39.742Z,6.70
2019-01-17T13:55:42.519Z,9.00
2019-01-17T14:00:45.296Z,6.07
2019-01-17T14:05:47.841Z,9.93
2019-01-17T14:10:50.712Z,6.70
2019-01-17T14:15:53.535Z,6.80
2019-01-17T14:20:56.027Z,8.53
2019-01-17T14:25:59.057Z,11.40
2019-01-17T14:31:01.713Z,7.97
2019-01-17T14:36:04.575Z,7.23
2019-01-17T14:41:07.552Z,21.53
2019-01-17T14:46:10.260Z,8.07
2019-01-17T14:51:13.003Z,14.83
2019-01-17T14:56:15.649Z,7.23
2019-01-17T15:01:18.325Z,8.33
2019-01-17T15:06:21.422Z,5.17
2019-01-17T15:11:24.324Z,8.43
2019-01-17T15:16:27.241Z,7.03
2019-01-17T15:21:30.124Z,8.50
2019-01-17T15:26:32.654Z,3.87
2019-01-17T15:31:35.222Z,7.60
2019-01-17T15:36:37.157Z,5.60
2019-01-17T15:41:39.713Z,3.10
2019-01-17T15:46:42.201Z,4.03
2019-01-17T15:51:44.390Z,5.13
2019-01-17T15:56:47.091Z,1.27
2019-01-17T16:01:50.091Z,1.10
2019-01-17T16:06:52.896Z,5.87
2019-01-17T16:11:56.082Z,2.53
2019-01-17T16:16:59.077Z,4.97
2019-01-17T16:22:02.010Z,11.53
2019-01-17T16:27:05.079Z,4.30
2019-01-17T16:32:07.901Z,4.50
2019-01-17T16:37:10.417Z,10.57
2019-01-17T16:42:13.230Z,4.97
2019-01-17T16:47:16.524Z,5.70
2019-01-17T16:52:19.249Z,4.20
2019-01-17T16:57:21.705Z,6.30
2019-01-17T17:02:24.600Z,4.10
2019-01-17T17:07:27.410Z,4.63
2019-01-17T17:12:30.099Z,5.33
2019-01-17T17:17:32.635Z,1.10
2019-01-17T17:22:35.415Z,0.70
2019-01-17T17:27:38.544Z,1.67
2019-01-17T17:32:41.385Z,0.63
2019-01-17T17:37:43.680Z,1.03
2019-01-17T17:42:45.976Z,1.00
2019-01-17T17:47:48.789Z,2.10
2019-01-17T17:52:51.927Z,2.27
2019-01-17T17:57:55.130Z,4.90
2019-01-17T18:02:58.629Z,4.00
2019-01-17T18:08:01.026Z,4.00
2019-01-17T18:13:03.921Z,1.73
2019-01-17T18:18:07.232Z,3.83
2019-01-17T18:23:10.082Z,2.20
2019-01-17T18:28:12.929Z,3.67
2019-01-17T18:33:16.058Z,2.67
2019-01-17T18:38:19.785Z,1.53
2019-01-17T18:43:22.389Z,5.23
2019-01-17T18:48:24.356Z,1.90
2019-01-17T18:53:27.357Z,3.00
2019-01-17T18:58:31.034Z,3.37
2019-01-17T19:03:34.142Z,3.53
2019-01-17T19:08:37.386Z,3.27
2019-01-17T19:13:41.344Z,9.07
2019-01-17T19:18:44.877Z,8.53
2019-01-17T19:23:50.575Z,7.97
2019-01-17T19:28:54.407Z,6.77
2019-01-17T19:33:58.076Z,6.33
2019-01-17T19:39:03.702Z,4.13
2019-01-17T19:44:06.886Z,4.50
2019-01-17T19:49:10.127Z,9.97
2019-01-17T19:54:13.790Z,2.50
2019-01-17T19:59:19.167Z,8.17
2019-01-17T20:04:26.245Z,2.10
2019-01-17T20:09:31.537Z,9.67
2019-01-17T20:14:36.594Z,9.10
2019-01-17T20:19:42.552Z,5.33
2019-01-17T20:24:47.722Z,4.27
2019-01-17T20:29:53.466Z,2.43
2019-01-17T20:35:00.795Z,3.60
2019-01-17T20:40:06.430Z,4.57
2019-01-17T20:45:13.302Z,5.20
2019-01-17T20:50:26.886Z,3.90
2019-01-17T20:55:32.638Z,10.03
2019-01-17T21:00:40.866Z,7.87
2019-01-17T21:05:47.880Z,5.17
2019-01-17T21:10:52.957Z,6.73
2019-01-17T21:16:01.175Z,4.80
2019-01-17T21:21:01.785Z,5.30
2019-01-17T21:26:05.173Z,7.77
2019-01-17T21:31:08.025Z,9.80
2019-01-17T21:36:11.737Z,8.57
2019-01-17T21:41:14.640Z,11.40
2019-01-17T21:46:17.115Z,3.30
2019-01-17T21:51:20.316Z,5.00
2019-01-17T21:56:22.706Z,9.03
2019-01-17T22:01:26.143Z,2.73
2019-01-17T22:06:28.514Z,3.17
2019-01-17T22:11:31.217Z,1.27
2019-01-17T22:16:34.215Z,3.90
2019-01-17T22:21:36.814Z,1.63
2019-01-17T22:26:39.699Z,7.43
2019-01-17T22:31:42.400Z,3.37
2019-01-17T22:36:45.425Z,5.80
2019-01-17T22:41:48.337Z,6.93
2019-01-17T22:46:51.023Z,3.83
2019-01-17T22:51:54.042Z,8.23
2019-01-17T22:56:57.132Z,4.40
2019-01-17T23:02:00.352Z,1.67
2019-01-17T23:07:03.025Z,6.50
2019-01-17T23:12:05.925Z,3.03
2019-01-17T23:17:09.032Z,2.80
2019-01-17T23:22:11.503Z,2.90
2019-01-17T23:27:14.464Z,3.80
2019-01-17T23:32:17.339Z,5.63
2019-01-17T23:37:20.446Z,13.70
2019-01-17T23:42:22.911Z,2.93
2019-01-17T23:47:25.732Z,9.27
2019-01-17T23:52:28.839Z,7.70
2019-01-17T23:57:31.495Z,2.50
